Terminal Aerodrome Forecast
Issued by NWS Omaha/Valley, NE

Home | Current Version | Previous Version | Text Only | Print | Product List | Glossary On
Versions: 1 2 3 4 5 6 7 8 9 10 11 12 13 14 15 16 17 18 19 20
000
FTUS43 KOAX 191120
TAFOMA
TAF
KOMA 191120Z 1912/2012 17015KT P6SM SCT250 WS020/20044KT
     FM191500 18018G26KT P6SM SCT050 BKN250
     FM192300 17010KT P6SM BKN100
     FM200600 17009KT P6SM OVC050
      TEMPO 2008/2012 5SM -RA OVC050=

USA.gov is the U.S. government's official web portal to all federal, state and local government web resources and services.